createdAt,value
2023-05-02T00:00:56.880Z,1011.11
2023-05-02T00:01:56.930Z,1011.16
2023-05-02T00:02:56.991Z,1011.13
2023-05-02T00:03:56.909Z,1011.17
2023-05-02T00:04:56.853Z,1011.17
2023-05-02T00:05:56.852Z,1011.15
2023-05-02T00:06:56.926Z,1011.16
2023-05-02T00:07:56.826Z,1011.18
2023-05-02T00:08:56.832Z,1011.15
2023-05-02T00:09:56.861Z,1011.16
2023-05-02T00:10:56.814Z,1011.20
2023-05-02T00:11:56.814Z,1011.20
2023-05-02T00:12:56.885Z,1011.18
2023-05-02T00:13:56.797Z,1011.21
2023-05-02T00:14:56.785Z,1011.19
2023-05-02T00:15:56.784Z,1011.22
2023-05-02T00:16:56.802Z,1011.22
2023-05-02T00:17:56.836Z,1011.19
2023-05-02T00:18:56.768Z,1011.18
2023-05-02T00:19:56.878Z,1011.17
2023-05-02T00:20:56.769Z,1011.16
2023-05-02T00:21:56.756Z,1011.16
2023-05-02T00:22:56.752Z,1011.11
2023-05-02T00:23:56.732Z,1011.15
2023-05-02T00:24:56.735Z,1011.12
2023-05-02T00:25:56.723Z,1011.12
2023-05-02T00:26:56.714Z,1011.14
2023-05-02T00:27:56.709Z,1011.15
2023-05-02T00:28:56.698Z,1011.14
2023-05-02T00:29:56.804Z,1011.17
2023-05-02T00:30:56.712Z,1011.19
2023-05-02T00:31:56.689Z,1011.19
2023-05-02T00:32:56.739Z,1011.21
2023-05-02T00:33:56.668Z,1011.23
2023-05-02T00:34:56.749Z,1011.18
2023-05-02T00:35:56.655Z,1011.20
2023-05-02T00:36:56.658Z,1011.21
2023-05-02T00:37:56.639Z,1011.22
2023-05-02T00:38:56.641Z,1011.23
2023-05-02T00:39:56.657Z,1011.23
2023-05-02T00:40:56.629Z,1011.21
2023-05-02T00:41:56.625Z,1011.20
2023-05-02T00:42:56.618Z,1011.19
2023-05-02T00:43:56.610Z,1011.19
2023-05-02T00:44:56.607Z,1011.22
2023-05-02T00:45:56.639Z,1011.18
2023-05-02T00:46:56.830Z,1011.19
2023-05-02T00:47:56.610Z,1011.25
2023-05-02T00:48:56.571Z,1011.21
2023-05-02T00:49:56.613Z,1011.21
2023-05-02T00:50:56.556Z,1011.23
2023-05-02T00:51:56.563Z,1011.21
2023-05-02T00:52:56.549Z,1011.24
2023-05-02T00:53:56.541Z,1011.25
2023-05-02T00:54:56.540Z,1011.24
2023-05-02T00:55:56.530Z,1011.23
2023-05-02T00:56:56.530Z,1011.24
2023-05-02T00:57:56.515Z,1011.23
2023-05-02T00:58:56.510Z,1011.25
2023-05-02T00:59:56.533Z,1011.26
2023-05-02T01:00:56.501Z,1011.24
2023-05-02T01:01:56.552Z,1011.30
2023-05-02T01:02:56.554Z,1011.33
2023-05-02T01:03:56.608Z,1011.31
2023-05-02T01:04:56.476Z,1011.30
2023-05-02T01:05:56.469Z,1011.31
2023-05-02T01:06:56.460Z,1011.31
2023-05-02T01:07:56.469Z,1011.32
2023-05-02T01:08:56.449Z,1011.34
2023-05-02T01:09:56.490Z,1011.36
2023-05-02T01:10:56.440Z,1011.33
2023-05-02T01:11:56.429Z,1011.37
2023-05-02T01:12:56.433Z,1011.33
2023-05-02T01:13:56.418Z,1011.41
2023-05-02T01:14:56.429Z,1011.39
2023-05-02T01:15:56.444Z,1011.43
2023-05-02T01:16:56.398Z,1011.48
2023-05-02T01:17:56.562Z,1011.45
2023-05-02T01:18:56.410Z,1011.47
2023-05-02T01:19:56.383Z,1011.54
2023-05-02T01:20:56.382Z,1011.53
2023-05-02T01:21:56.366Z,1011.55
2023-05-02T01:22:56.360Z,1011.51
2023-05-02T01:23:56.367Z,1011.51
2023-05-02T01:24:56.348Z,1011.56
2023-05-02T01:25:56.345Z,1011.56
2023-05-02T01:26:56.333Z,1011.56
2023-05-02T01:27:56.332Z,1011.53
2023-05-02T01:28:56.325Z,1011.56
2023-05-02T01:29:56.318Z,1011.56
2023-05-02T01:30:56.316Z,1011.59
2023-05-02T01:31:56.343Z,1011.59
2023-05-02T01:32:56.334Z,1011.64
2023-05-02T01:33:56.303Z,1011.61
2023-05-02T01:34:56.287Z,1011.63
2023-05-02T01:35:56.281Z,1011.66
2023-05-02T01:36:56.274Z,1011.64
2023-05-02T01:37:56.273Z,1011.65
2023-05-02T01:38:56.270Z,1011.68
2023-05-02T01:39:56.259Z,1011.70
2023-05-02T01:40:56.249Z,1011.73
2023-05-02T01:41:56.249Z,1011.72
2023-05-02T01:42:56.239Z,1011.71
2023-05-02T01:43:56.238Z,1011.78
2023-05-02T01:44:56.221Z,1011.78
2023-05-02T01:45:56.223Z,1011.74
2023-05-02T01:46:56.256Z,1011.75
2023-05-02T01:47:56.245Z,1011.75
2023-05-02T01:48:56.204Z,1011.77
2023-05-02T01:49:56.194Z,1011.76
2023-05-02T01:50:56.197Z,1011.74
2023-05-02T01:51:56.193Z,1011.74
2023-05-02T01:52:56.176Z,1011.76
2023-05-02T01:53:56.174Z,1011.75
2023-05-02T01:54:56.164Z,1011.78
2023-05-02T01:55:56.160Z,1011.79
2023-05-02T01:56:56.159Z,1011.81
2023-05-02T01:57:56.139Z,1011.81
2023-05-02T01:58:56.142Z,1011.84
2023-05-02T01:59:56.136Z,1011.90
2023-05-02T02:00:56.152Z,1011.88
2023-05-02T02:01:56.127Z,1011.88
2023-05-02T02:02:56.152Z,1011.94
2023-05-02T02:03:56.184Z,1011.95
2023-05-02T02:04:56.109Z,1011.95
2023-05-02T02:05:56.098Z,1011.98
2023-05-02T02:06:56.095Z,1012.00
2023-05-02T02:07:56.091Z,1011.97
2023-05-02T02:08:56.081Z,1011.97
2023-05-02T02:09:56.083Z,1012.00
2023-05-02T02:10:56.182Z,1012.00
2023-05-02T02:11:56.072Z,1012.01
2023-05-02T02:12:56.076Z,1011.96
2023-05-02T02:13:56.053Z,1012.01
2023-05-02T02:14:56.044Z,1011.95
2023-05-02T02:15:56.037Z,1011.96
2023-05-02T02:16:56.124Z,1011.98
2023-05-02T02:17:56.025Z,1012.02
2023-05-02T02:18:56.022Z,1012.02
2023-05-02T02:19:56.015Z,1012.06
2023-05-02T02:20:56.023Z,1012.07
2023-05-02T02:21:56.005Z,1012.05
2023-05-02T02:22:56.006Z,1012.05
2023-05-02T02:23:55.993Z,1012.07
2023-05-02T02:24:55.986Z,1012.05
2023-05-02T02:25:55.980Z,1012.05
2023-05-02T02:26:55.969Z,1012.05
2023-05-02T02:27:55.961Z,1012.10
2023-05-02T02:28:55.954Z,1012.12
2023-05-02T02:29:55.963Z,1012.13
2023-05-02T02:30:55.978Z,1012.16
2023-05-02T02:31:55.938Z,1012.19
2023-05-02T02:32:55.949Z,1012.19
2023-05-02T02:33:55.929Z,1012.21
2023-05-02T02:34:55.916Z,1012.19
2023-05-02T02:35:55.933Z,1012.24
2023-05-02T02:36:55.920Z,1012.23
2023-05-02T02:37:55.940Z,1012.24
2023-05-02T02:38:55.894Z,1012.25
2023-05-02T02:39:55.908Z,1012.26
2023-05-02T02:40:55.882Z,1012.29
2023-05-02T02:41:55.874Z,1012.29
2023-05-02T02:42:55.883Z,1012.29
2023-05-02T02:43:55.864Z,1012.32
2023-05-02T02:44:55.880Z,1012.33
2023-05-02T02:45:55.944Z,1012.30
2023-05-02T02:46:55.845Z,1012.39
2023-05-02T02:47:55.867Z,1012.33
2023-05-02T02:48:55.838Z,1012.33
2023-05-02T02:49:55.829Z,1012.34
2023-05-02T02:50:55.826Z,1012.35
2023-05-02T02:51:55.812Z,1012.33
2023-05-02T02:52:55.840Z,1012.41
2023-05-02T02:53:55.810Z,1012.35
2023-05-02T02:54:55.796Z,1012.38
2023-05-02T02:55:55.805Z,1012.39
2023-05-02T02:56:55.794Z,1012.39
2023-05-02T02:57:55.792Z,1012.47
2023-05-02T02:58:55.893Z,1012.46
2023-05-02T02:59:55.796Z,1012.46
2023-05-02T03:00:55.772Z,1012.44
2023-05-02T03:01:55.792Z,1012.48
2023-05-02T03:02:55.788Z,1012.50
2023-05-02T03:03:55.801Z,1012.53
2023-05-02T03:04:55.740Z,1012.56
2023-05-02T03:05:55.730Z,1012.56
2023-05-02T03:06:55.837Z,1012.59
2023-05-02T03:07:55.748Z,1012.61
2023-05-02T03:08:55.718Z,1012.61
2023-05-02T03:09:55.712Z,1012.62
2023-05-02T03:10:55.696Z,1012.66
2023-05-02T03:11:55.705Z,1012.68
2023-05-02T03:12:55.827Z,1012.66
2023-05-02T03:13:55.705Z,1012.74
2023-05-02T03:14:55.691Z,1012.71
2023-05-02T03:15:55.728Z,1012.71
2023-05-02T03:16:55.678Z,1012.74
2023-05-02T03:17:55.729Z,1012.73
2023-05-02T03:18:55.669Z,1012.72
2023-05-02T03:19:55.659Z,1012.72
2023-05-02T03:20:55.671Z,1012.71
2023-05-02T03:21:55.629Z,1012.73
2023-05-02T03:22:55.652Z,1012.76
2023-05-02T03:23:55.633Z,1012.72
2023-05-02T03:24:55.636Z,1012.77
2023-05-02T03:25:55.605Z,1012.77
2023-05-02T03:26:55.615Z,1012.79
2023-05-02T03:27:55.610Z,1012.77
2023-05-02T03:28:55.605Z,1012.78
2023-05-02T03:29:55.587Z,1012.79
2023-05-02T03:30:55.584Z,1012.78
2023-05-02T03:31:55.634Z,1012.76
2023-05-02T03:32:55.588Z,1012.78
2023-05-02T03:33:55.552Z,1012.82
2023-05-02T03:34:55.554Z,1012.83
2023-05-02T03:35:55.554Z,1012.78
2023-05-02T03:36:55.550Z,1012.77
2023-05-02T03:37:55.543Z,1012.78
2023-05-02T03:38:55.526Z,1012.76
2023-05-02T03:39:55.526Z,1012.80
2023-05-02T03:40:55.525Z,1012.81
2023-05-02T03:41:55.524Z,1012.77
2023-05-02T03:42:55.507Z,1012.78
2023-05-02T03:43:55.502Z,1012.79
2023-05-02T03:44:55.505Z,1012.81
2023-05-02T03:45:55.496Z,1012.77
2023-05-02T03:46:55.661Z,1012.81
2023-05-02T03:47:55.534Z,1012.76
2023-05-02T03:48:55.478Z,1012.79
2023-05-02T03:49:55.472Z,1012.80
2023-05-02T03:50:55.461Z,1012.81
2023-05-02T03:51:55.442Z,1012.81
2023-05-02T03:52:55.457Z,1012.79
2023-05-02T03:53:55.454Z,1012.88
2023-05-02T03:54:55.430Z,1012.84
2023-05-02T03:55:55.429Z,1012.83
2023-05-02T03:56:55.457Z,1012.80
2023-05-02T03:57:55.417Z,1012.78
2023-05-02T03:58:55.409Z,1012.84
2023-05-02T03:59:55.419Z,1012.85
2023-05-02T04:00:55.395Z,1012.86
2023-05-02T04:01:55.438Z,1012.85
2023-05-02T04:02:55.491Z,1012.87
2023-05-02T04:03:55.403Z,1012.84
2023-05-02T04:04:55.400Z,1012.90
2023-05-02T04:05:55.367Z,1012.94
2023-05-02T04:06:55.424Z,1012.89
2023-05-02T04:07:55.350Z,1012.93
2023-05-02T04:08:55.352Z,1012.93
2023-05-02T04:09:55.331Z,1012.91
2023-05-02T04:10:55.334Z,1012.91
2023-05-02T04:11:55.330Z,1012.90
2023-05-02T04:12:55.319Z,1012.96
2023-05-02T04:13:55.314Z,1012.99
2023-05-02T04:14:55.319Z,1012.97
2023-05-02T04:15:55.297Z,1013.01
2023-05-02T04:16:55.340Z,1013.03
2023-05-02T04:17:55.350Z,1013.06
2023-05-02T04:18:55.284Z,1013.03
2023-05-02T04:19:55.317Z,1013.07
2023-05-02T04:20:55.285Z,1013.06
2023-05-02T04:21:55.272Z,1013.09
2023-05-02T04:22:55.253Z,1013.08
2023-05-02T04:23:55.248Z,1013.06
2023-05-02T04:24:55.245Z,1013.09
2023-05-02T04:25:55.235Z,1013.08
2023-05-02T04:26:55.247Z,1013.08
2023-05-02T04:27:55.231Z,1013.11
2023-05-02T04:28:55.233Z,1013.12
2023-05-02T04:29:55.220Z,1013.13
2023-05-02T04:30:55.244Z,1013.15
2023-05-02T04:31:55.209Z,1013.22
2023-05-02T04:32:55.244Z,1013.22
2023-05-02T04:33:55.194Z,1013.24
2023-05-02T04:34:55.177Z,1013.23
2023-05-02T04:35:55.186Z,1013.28
2023-05-02T04:36:55.205Z,1013.26
2023-05-02T04:37:55.163Z,1013.28
2023-05-02T04:38:55.150Z,1013.29
2023-05-02T04:39:55.146Z,1013.34
2023-05-02T04:40:55.141Z,1013.32
2023-05-02T04:41:55.128Z,1013.35
2023-05-02T04:42:55.132Z,1013.37
2023-05-02T04:43:55.119Z,1013.37
2023-05-02T04:44:55.122Z,1013.41
2023-05-02T04:45:55.165Z,1013.37
2023-05-02T04:46:55.152Z,1013.40
2023-05-02T04:47:55.164Z,1013.41
2023-05-02T04:48:55.087Z,1013.40
2023-05-02T04:49:55.101Z,1013.44
2023-05-02T04:50:55.077Z,1013.44
2023-05-02T04:51:55.071Z,1013.45
2023-05-02T04:52:55.068Z,1013.50
2023-05-02T04:53:55.054Z,1013.50
2023-05-02T04:54:55.136Z,1013.54
2023-05-02T04:55:55.050Z,1013.53
2023-05-02T04:56:55.049Z,1013.53
2023-05-02T04:57:55.032Z,1013.51
2023-05-02T04:58:55.021Z,1013.57
2023-05-02T04:59:55.028Z,1013.58
2023-05-02T05:00:55.018Z,1013.63
2023-05-02T05:01:55.027Z,1013.59
2023-05-02T05:02:55.098Z,1013.60
2023-05-02T05:03:55.134Z,1013.58
2023-05-02T05:04:55.017Z,1013.63
2023-05-02T05:05:54.981Z,1013.62
2023-05-02T05:06:55.065Z,1013.61
2023-05-02T05:07:54.978Z,1013.60
2023-05-02T05:08:54.967Z,1013.61
2023-05-02T05:09:54.957Z,1013.59
2023-05-02T05:10:54.948Z,1013.63
2023-05-02T05:11:54.942Z,1013.63
2023-05-02T05:12:54.942Z,1013.64
2023-05-02T05:13:54.928Z,1013.67
2023-05-02T05:14:54.930Z,1013.69
2023-05-02T05:15:54.951Z,1013.72
2023-05-02T05:16:54.917Z,1013.74
2023-05-02T05:17:54.979Z,1013.74
2023-05-02T05:18:54.901Z,1013.79
2023-05-02T05:19:54.908Z,1013.78
2023-05-02T05:20:54.891Z,1013.81
2023-05-02T05:21:54.893Z,1013.86
2023-05-02T05:22:54.877Z,1013.87
2023-05-02T05:23:54.878Z,1013.89
2023-05-02T05:24:54.876Z,1013.88
2023-05-02T05:25:54.866Z,1013.84
2023-05-02T05:26:54.865Z,1013.88
2023-05-02T05:27:54.854Z,1013.88
2023-05-02T05:28:54.847Z,1013.88
2023-05-02T05:29:54.841Z,1013.90
2023-05-02T05:30:54.835Z,1013.90
2023-05-02T05:31:54.834Z,1013.93
2023-05-02T05:32:54.881Z,1013.96
2023-05-02T05:33:54.849Z,1013.99
2023-05-02T05:34:54.815Z,1014.00
2023-05-02T05:35:54.797Z,1013.98
2023-05-02T05:36:54.839Z,1014.01
2023-05-02T05:37:54.797Z,1014.01
2023-05-02T05:38:54.783Z,1014.02
2023-05-02T05:39:54.776Z,1014.05
2023-05-02T05:40:54.772Z,1014.08
2023-05-02T05:41:54.767Z,1014.05
2023-05-02T05:42:54.776Z,1014.05
2023-05-02T05:43:54.763Z,1014.07
2023-05-02T05:44:54.751Z,1014.04
2023-05-02T05:45:54.742Z,1014.04
2023-05-02T05:46:54.802Z,1014.09
2023-05-02T05:47:54.748Z,1014.10
2023-05-02T05:48:54.721Z,1014.11
2023-05-02T05:49:54.722Z,1014.14
2023-05-02T05:50:54.717Z,1014.17
2023-05-02T05:51:54.709Z,1014.16
2023-05-02T05:52:54.703Z,1014.18
2023-05-02T05:53:54.686Z,1014.22
2023-05-02T05:54:54.684Z,1014.26
2023-05-02T05:55:54.682Z,1014.27
2023-05-02T05:56:54.666Z,1014.25
2023-05-02T05:57:54.674Z,1014.29
2023-05-02T05:58:54.664Z,1014.25
2023-05-02T05:59:54.664Z,1014.31
2023-05-02T06:00:54.657Z,1014.31
2023-05-02T06:01:54.644Z,1014.33
2023-05-02T06:02:54.731Z,1014.37
2023-05-02T06:03:54.647Z,1014.38
2023-05-02T06:04:54.677Z,1014.40
2023-05-02T06:05:54.619Z,1014.44
2023-05-02T06:06:54.700Z,1014.43
2023-05-02T06:07:54.606Z,1014.47
2023-05-02T06:08:54.606Z,1014.44
2023-05-02T06:09:54.597Z,1014.44
2023-05-02T06:10:54.585Z,1014.45
2023-05-02T06:11:54.593Z,1014.46
2023-05-02T06:12:54.585Z,1014.43
2023-05-02T06:13:54.567Z,1014.43
2023-05-02T06:14:54.568Z,1014.46
2023-05-02T06:15:54.574Z,1014.45
2023-05-02T06:16:54.551Z,1014.46
2023-05-02T06:17:54.601Z,1014.49
2023-05-02T06:18:54.549Z,1014.50
2023-05-02T06:19:54.533Z,1014.52
2023-05-02T06:20:54.526Z,1014.50
2023-05-02T06:21:54.516Z,1014.55
2023-05-02T06:22:54.518Z,1014.51
2023-05-02T06:23:54.508Z,1014.54
2023-05-02T06:24:54.505Z,1014.54
2023-05-02T06:25:54.519Z,1014.54
2023-05-02T06:26:54.499Z,1014.57
2023-05-02T06:27:54.481Z,1014.59
2023-05-02T06:28:54.480Z,1014.59
2023-05-02T06:29:54.482Z,1014.57
2023-05-02T06:30:54.466Z,1014.60
2023-05-02T06:31:54.503Z,1014.58
2023-05-02T06:32:54.472Z,1014.60
2023-05-02T06:33:54.449Z,1014.67
2023-05-02T06:34:54.435Z,1014.67
2023-05-02T06:35:54.427Z,1014.72
2023-05-02T06:36:54.431Z,1014.73
2023-05-02T06:37:54.421Z,1014.73
2023-05-02T06:38:54.419Z,1014.75
2023-05-02T06:39:54.404Z,1014.76
2023-05-02T06:40:54.401Z,1014.79
2023-05-02T06:41:54.399Z,1014.80
2023-05-02T06:42:54.408Z,1014.80
2023-05-02T06:43:54.384Z,1014.84
2023-05-02T06:44:54.387Z,1014.79
2023-05-02T06:45:54.392Z,1014.82
2023-05-02T06:46:54.396Z,1014.81
2023-05-02T06:47:54.442Z,1014.85
2023-05-02T06:48:54.349Z,1014.88
2023-05-02T06:49:54.376Z,1014.87
2023-05-02T06:50:54.401Z,1014.91
2023-05-02T06:51:54.336Z,1014.93
2023-05-02T06:52:54.328Z,1014.91
2023-05-02T06:53:54.327Z,1014.97
2023-05-02T06:54:54.317Z,1014.98
2023-05-02T06:55:54.313Z,1014.97
2023-05-02T06:56:54.307Z,1014.99
2023-05-02T06:57:54.300Z,1014.99
2023-05-02T06:58:54.294Z,1014.99
2023-05-02T06:59:54.311Z,1015.04
2023-05-02T07:00:54.300Z,1015.03
2023-05-02T07:01:54.271Z,1015.05
2023-05-02T07:02:54.316Z,1015.07
2023-05-02T07:03:54.333Z,1015.09
2023-05-02T07:04:54.263Z,1015.12
2023-05-02T07:05:54.253Z,1015.12
2023-05-02T07:06:54.297Z,1015.13
2023-05-02T07:07:54.250Z,1015.10
2023-05-02T07:08:54.234Z,1015.12
2023-05-02T07:09:54.245Z,1015.13
2023-05-02T07:10:54.219Z,1015.12
2023-05-02T07:11:54.209Z,1015.11
2023-05-02T07:12:54.205Z,1015.13
2023-05-02T07:13:54.206Z,1015.16
2023-05-02T07:14:54.211Z,1015.19
2023-05-02T07:15:54.191Z,1015.17
2023-05-02T07:16:54.225Z,1015.15
2023-05-02T07:17:54.275Z,1015.21
2023-05-02T07:18:54.165Z,1015.22
2023-05-02T07:19:54.215Z,1015.22
2023-05-02T07:20:54.151Z,1015.24
2023-05-02T07:21:54.152Z,1015.26
2023-05-02T07:22:54.144Z,1015.28
2023-05-02T07:23:54.137Z,1015.30
2023-05-02T07:24:54.139Z,1015.27
2023-05-02T07:25:54.138Z,1015.28
2023-05-02T07:26:54.129Z,1015.26
2023-05-02T07:27:54.126Z,1015.31
2023-05-02T07:28:54.116Z,1015.31
2023-05-02T07:29:54.101Z,1015.33
2023-05-02T07:30:54.100Z,1015.34
2023-05-02T07:31:54.125Z,1015.36
2023-05-02T07:32:54.117Z,1015.41
2023-05-02T07:33:54.079Z,1015.40
2023-05-02T07:34:54.077Z,1015.45
2023-05-02T07:35:54.080Z,1015.46
2023-05-02T07:36:54.066Z,1015.47
2023-05-02T07:37:54.062Z,1015.49
2023-05-02T07:38:54.053Z,1015.43
2023-05-02T07:39:54.067Z,1015.47
2023-05-02T07:40:54.047Z,1015.46
2023-05-02T07:41:54.035Z,1015.47
2023-05-02T07:42:54.020Z,1015.46
2023-05-02T07:43:54.022Z,1015.46
2023-05-02T07:44:54.020Z,1015.43
2023-05-02T07:45:54.099Z,1015.47
2023-05-02T07:46:54.018Z,1015.48
2023-05-02T07:47:54.047Z,1015.51
2023-05-02T07:48:54.012Z,1015.48
2023-05-02T07:49:53.990Z,1015.53
2023-05-02T07:50:53.985Z,1015.53
2023-05-02T07:51:53.990Z,1015.54
2023-05-02T07:52:53.966Z,1015.55
2023-05-02T07:53:53.962Z,1015.54
2023-05-02T07:54:53.955Z,1015.52
2023-05-02T07:55:53.952Z,1015.58
2023-05-02T07:56:53.954Z,1015.54
2023-05-02T07:57:53.941Z,1015.54
2023-05-02T07:58:53.933Z,1015.58
2023-05-02T07:59:53.948Z,1015.60
2023-05-02T08:00:53.924Z,1015.56
2023-05-02T08:01:53.931Z,1015.58
2023-05-02T08:02:54.009Z,1015.56
2023-05-02T08:03:54.110Z,1015.62
2023-05-02T08:04:53.983Z,1015.59
2023-05-02T08:05:53.905Z,1015.58
2023-05-02T08:06:53.956Z,1015.65
2023-05-02T08:07:53.879Z,1015.65
2023-05-02T08:08:53.878Z,1015.65
2023-05-02T08:09:53.868Z,1015.65
2023-05-02T08:10:53.861Z,1015.66
2023-05-02T08:11:53.857Z,1015.70
2023-05-02T08:12:53.850Z,1015.68
2023-05-02T08:13:53.849Z,1015.69
2023-05-02T08:14:53.837Z,1015.69
2023-05-02T08:15:53.856Z,1015.69
2023-05-02T08:16:53.875Z,1015.71
2023-05-02T08:17:53.870Z,1015.70
2023-05-02T08:18:53.941Z,1015.69
2023-05-02T08:19:53.808Z,1015.72
2023-05-02T08:20:53.798Z,1015.78
2023-05-02T08:21:53.801Z,1015.80
2023-05-02T08:22:53.788Z,1015.73
2023-05-02T08:23:53.788Z,1015.73
2023-05-02T08:24:53.814Z,1015.76
2023-05-02T08:25:53.772Z,1015.79
2023-05-02T08:26:53.808Z,1015.81
2023-05-02T08:27:53.766Z,1015.80
2023-05-02T08:28:53.760Z,1015.82
2023-05-02T08:29:53.762Z,1015.84
2023-05-02T08:30:53.771Z,1015.92
2023-05-02T08:31:53.831Z,1015.87
2023-05-02T08:32:53.878Z,1015.89
2023-05-02T08:33:53.734Z,1015.86
2023-05-02T08:34:53.750Z,1015.92
2023-05-02T08:35:53.721Z,1015.90
2023-05-02T08:36:54.445Z,1015.99
2023-05-02T08:37:53.693Z,1016.00
2023-05-02T08:38:53.730Z,1015.99
2023-05-02T08:39:53.686Z,1016.03
2023-05-02T08:40:53.714Z,1016.01
2023-05-02T08:41:53.708Z,1016.02
2023-05-02T08:42:53.675Z,1016.01
2023-05-02T08:43:53.662Z,1016.02
2023-05-02T08:44:53.658Z,1016.00
2023-05-02T08:45:53.658Z,1016.06
2023-05-02T08:46:53.682Z,1016.06
2023-05-02T08:47:53.724Z,1016.05
2023-05-02T08:48:53.633Z,1016.03
2023-05-02T08:49:53.628Z,1016.05
2023-05-02T08:50:53.643Z,1016.07
2023-05-02T08:51:53.644Z,1016.06
2023-05-02T08:52:53.641Z,1016.08
2023-05-02T08:53:53.624Z,1016.05
2023-05-02T08:54:53.620Z,1016.14
2023-05-02T08:55:53.606Z,1016.16
2023-05-02T08:56:53.590Z,1016.13
2023-05-02T08:57:53.573Z,1016.15
2023-05-02T08:58:53.575Z,1016.14
2023-05-02T08:59:53.578Z,1016.16
2023-05-02T09:00:53.622Z,1016.23
2023-05-02T09:01:53.559Z,1016.22
2023-05-02T09:02:53.617Z,1016.25
2023-05-02T09:03:53.578Z,1016.31
2023-05-02T09:04:53.549Z,1016.29
2023-05-02T09:05:53.551Z,1016.31
2023-05-02T09:06:53.557Z,1016.31
2023-05-02T09:07:53.548Z,1016.38
2023-05-02T09:08:53.521Z,1016.39
2023-05-02T09:09:53.509Z,1016.40
2023-05-02T09:10:53.509Z,1016.39
2023-05-02T09:11:53.497Z,1016.41
2023-05-02T09:12:53.491Z,1016.44
2023-05-02T09:13:53.490Z,1016.45
2023-05-02T09:14:53.495Z,1016.49
2023-05-02T09:15:53.485Z,1016.49
2023-05-02T09:16:53.648Z,1016.47
2023-05-02T09:17:53.525Z,1016.50
2023-05-02T09:18:53.450Z,1016.52
2023-05-02T09:19:53.469Z,1016.56
2023-05-02T09:20:53.463Z,1016.56
2023-05-02T09:21:53.442Z,1016.60
2023-05-02T09:22:53.460Z,1016.54
2023-05-02T09:23:53.429Z,1016.58
2023-05-02T09:24:53.441Z,1016.58
2023-05-02T09:25:53.439Z,1016.58
2023-05-02T09:26:53.402Z,1016.64
2023-05-02T09:27:53.430Z,1016.60
2023-05-02T09:28:53.405Z,1016.61
2023-05-02T09:29:53.388Z,1016.66
2023-05-02T09:30:53.429Z,1016.69
2023-05-02T09:31:56.167Z,1016.67
2023-05-02T09:32:53.409Z,1016.70
2023-05-02T09:33:53.359Z,1016.70
2023-05-02T09:34:53.381Z,1016.75
2023-05-02T09:35:53.376Z,1016.74
2023-05-02T09:36:53.346Z,1016.72
2023-05-02T09:37:53.367Z,1016.68
2023-05-02T09:38:53.339Z,1016.73
2023-05-02T09:39:53.331Z,1016.73
2023-05-02T09:40:53.344Z,1016.72
2023-05-02T09:41:53.434Z,1016.76
2023-05-02T09:42:53.331Z,1016.76
2023-05-02T09:43:53.322Z,1016.70
2023-05-02T09:44:53.301Z,1016.76
2023-05-02T09:45:53.355Z,1016.77
2023-05-02T09:46:53.309Z,1016.74
2023-05-02T09:47:53.363Z,1016.76
2023-05-02T09:48:53.284Z,1016.74
2023-05-02T09:49:53.272Z,1016.74
2023-05-02T09:50:53.263Z,1016.79
2023-05-02T09:51:53.273Z,1016.75
2023-05-02T09:52:53.311Z,1016.80
2023-05-02T09:53:53.287Z,1016.77
2023-05-02T09:54:53.321Z,1016.74
2023-05-02T09:55:53.243Z,1016.78
2023-05-02T09:56:53.244Z,1016.73
2023-05-02T09:57:53.229Z,1016.81
2023-05-02T09:58:53.233Z,1016.83
2023-05-02T09:59:53.224Z,1016.78
2023-05-02T10:00:53.215Z,1016.86
2023-05-02T10:01:53.237Z,1016.84
2023-05-02T10:02:53.305Z,1016.84
2023-05-02T10:03:53.209Z,1016.88
2023-05-02T10:04:53.188Z,1016.92
2023-05-02T10:05:53.185Z,1016.89
2023-05-02T10:06:53.223Z,1016.90
2023-05-02T10:07:53.171Z,1016.89
2023-05-02T10:08:53.200Z,1016.94
2023-05-02T10:09:53.157Z,1016.90
2023-05-02T10:10:53.171Z,1016.95
2023-05-02T10:11:53.176Z,1016.92
2023-05-02T10:12:53.168Z,1016.91
2023-05-02T10:13:53.157Z,1016.95
2023-05-02T10:14:53.159Z,1016.97
2023-05-02T10:15:53.193Z,1016.97
2023-05-02T10:16:53.123Z,1016.98
2023-05-02T10:17:53.147Z,1016.92
2023-05-02T10:18:53.112Z,1016.97
2023-05-02T10:19:53.105Z,1017.02
2023-05-02T10:20:53.110Z,1017.03
2023-05-02T10:21:53.107Z,1017.00
2023-05-02T10:22:53.134Z,1017.03
2023-05-02T10:23:53.098Z,1016.99
2023-05-02T10:24:53.087Z,1017.03
2023-05-02T10:25:53.080Z,1017.07
2023-05-02T10:26:53.076Z,1017.07
2023-05-02T10:27:53.096Z,1017.13
2023-05-02T10:28:53.080Z,1017.12
2023-05-02T10:29:53.051Z,1017.13
2023-05-02T10:30:53.062Z,1017.12
2023-05-02T10:31:53.103Z,1017.17
2023-05-02T10:32:53.091Z,1017.15
2023-05-02T10:33:53.030Z,1017.18
2023-05-02T10:34:53.014Z,1017.17
2023-05-02T10:35:53.022Z,1017.20
2023-05-02T10:36:53.000Z,1017.17
2023-05-02T10:37:52.997Z,1017.17
2023-05-02T10:38:52.996Z,1017.20
2023-05-02T10:39:52.988Z,1017.22
2023-05-02T10:40:52.978Z,1017.20
2023-05-02T10:41:52.975Z,1017.20
2023-05-02T10:42:52.974Z,1017.25
2023-05-02T10:43:52.955Z,1017.22
2023-05-02T10:44:52.954Z,1017.26
2023-05-02T10:45:52.948Z,1017.30
2023-05-02T10:46:53.028Z,1017.27
2023-05-02T10:47:52.995Z,1017.22
2023-05-02T10:48:52.931Z,1017.25
2023-05-02T10:49:52.930Z,1017.20
2023-05-02T10:50:52.934Z,1017.26
2023-05-02T10:51:52.916Z,1017.24
2023-05-02T10:52:52.944Z,1017.27
2023-05-02T10:53:52.898Z,1017.25
2023-05-02T10:54:52.898Z,1017.27
2023-05-02T10:55:52.887Z,1017.31
2023-05-02T10:56:52.880Z,1017.24
2023-05-02T10:57:52.874Z,1017.27
2023-05-02T10:58:52.870Z,1017.26
2023-05-02T10:59:52.867Z,1017.26
2023-05-02T11:00:53.035Z,1017.26
2023-05-02T11:01:52.872Z,1017.29
2023-05-02T11:02:52.979Z,1017.29
2023-05-02T11:03:52.845Z,1017.28
2023-05-02T11:04:52.838Z,1017.24
2023-05-02T11:05:52.830Z,1017.25
2023-05-02T11:06:52.823Z,1017.24
2023-05-02T11:07:52.826Z,1017.23
2023-05-02T11:08:52.818Z,1017.25
2023-05-02T11:09:52.809Z,1017.30
2023-05-02T11:10:52.800Z,1017.29
2023-05-02T11:11:52.816Z,1017.34
2023-05-02T11:12:52.799Z,1017.30
2023-05-02T11:13:52.789Z,1017.33
2023-05-02T11:14:52.781Z,1017.32
2023-05-02T11:15:52.774Z,1017.31
2023-05-02T11:16:52.832Z,1017.32
2023-05-02T11:17:52.802Z,1017.30
2023-05-02T11:18:52.755Z,1017.29
2023-05-02T11:19:52.772Z,1017.30
2023-05-02T11:20:52.751Z,1017.30
2023-05-02T11:21:52.745Z,1017.33
2023-05-02T11:22:52.742Z,1017.31
2023-05-02T11:23:52.731Z,1017.31
2023-05-02T11:24:52.720Z,1017.28
2023-05-02T11:25:52.729Z,1017.30
2023-05-02T11:26:52.718Z,1017.26
2023-05-02T11:27:52.712Z,1017.32
2023-05-02T11:28:52.722Z,1017.29
2023-05-02T11:29:52.700Z,1017.29
2023-05-02T11:30:52.695Z,1017.33
2023-05-02T11:31:52.731Z,1017.27
2023-05-02T11:32:52.717Z,1017.27
2023-05-02T11:33:52.704Z,1017.29
2023-05-02T11:34:52.796Z,1017.36
2023-05-02T11:35:52.706Z,1017.31
2023-05-02T11:36:52.672Z,1017.34
2023-05-02T11:37:52.660Z,1017.33
2023-05-02T11:38:52.651Z,1017.33
2023-05-02T11:39:52.669Z,1017.36
2023-05-02T11:40:52.690Z,1017.37
2023-05-02T11:41:52.655Z,1017.32
2023-05-02T11:42:52.681Z,1017.31
2023-05-02T11:43:52.667Z,1017.32
2023-05-02T11:44:52.659Z,1017.35
2023-05-02T11:45:52.709Z,1017.33
2023-05-02T11:46:52.618Z,1017.40
2023-05-02T11:47:52.712Z,1017.37
2023-05-02T11:48:52.612Z,1017.38
2023-05-02T11:49:52.602Z,1017.38
2023-05-02T11:50:52.596Z,1017.34
2023-05-02T11:51:52.592Z,1017.42
2023-05-02T11:52:52.582Z,1017.43
2023-05-02T11:53:52.607Z,1017.40
2023-05-02T11:54:52.571Z,1017.38
2023-05-02T11:55:52.572Z,1017.41
2023-05-02T11:56:52.573Z,1017.40
2023-05-02T11:57:52.564Z,1017.37
2023-05-02T11:58:52.558Z,1017.35
2023-05-02T11:59:52.570Z,1017.38
2023-05-02T12:00:52.556Z,1017.40
2023-05-02T12:01:52.556Z,1017.39
2023-05-02T12:02:52.585Z,1017.41
2023-05-02T12:03:52.651Z,1017.39
2023-05-02T12:04:52.524Z,1017.38
2023-05-02T12:05:52.573Z,1017.42